createdAt,value
2018-09-02T00:00:34.281Z,16.50
2018-09-02T00:03:04.642Z,16.40
2018-09-02T00:05:34.233Z,16.50
2018-09-02T00:08:03.794Z,16.50
2018-09-02T00:10:40.389Z,16.40
2018-09-02T00:13:09.777Z,16.40
2018-09-02T00:15:39.193Z,16.40
2018-09-02T00:18:08.624Z,16.40
2018-09-02T00:20:39.126Z,16.40
2018-09-02T00:23:08.421Z,16.50
2018-09-02T00:25:37.837Z,16.50
2018-09-02T00:28:07.303Z,16.40
2018-09-02T00:30:38.746Z,16.40
2018-09-02T00:33:08.160Z,16.30
2018-09-02T00:35:37.477Z,16.30
2018-09-02T00:38:06.870Z,16.30
2018-09-02T00:40:57.177Z,16.30
2018-09-02T00:43:26.265Z,16.30
2018-09-02T00:45:55.381Z,16.30
2018-09-02T00:48:24.492Z,16.20
2018-09-02T00:50:59.405Z,16.20
2018-09-02T00:53:28.513Z,16.20
2018-09-02T00:55:57.597Z,16.20
2018-09-02T00:58:26.665Z,16.10
2018-09-02T01:00:55.873Z,16.10
2018-09-02T01:03:24.961Z,16.10
2018-09-02T01:08:22.857Z,16.00
2018-09-02T01:10:53.117Z,16.00
2018-09-02T01:13:22.229Z,16.00
2018-09-02T01:15:51.393Z,16.00
2018-09-02T01:18:20.498Z,16.00
2018-09-02T01:20:59.475Z,15.90
2018-09-02T01:23:28.649Z,16.00
2018-09-02T01:25:57.759Z,15.90
2018-09-02T01:28:26.857Z,15.90
2018-09-02T01:31:07.394Z,16.00
2018-09-02T01:33:36.553Z,15.90
2018-09-02T01:36:06.253Z,16.00
2018-09-02T01:38:35.398Z,16.00
2018-09-02T01:41:18.145Z,16.00
2018-09-02T01:43:47.237Z,16.00
2018-09-02T01:46:16.442Z,16.10
2018-09-02T01:48:45.829Z,16.10
2018-09-02T01:51:15.318Z,16.10
2018-09-02T01:53:44.676Z,16.10
2018-09-02T01:56:14.049Z,16.00
2018-09-02T01:58:43.422Z,16.10
2018-09-02T02:01:20.469Z,16.10
2018-09-02T02:03:49.950Z,16.00
2018-09-02T02:06:19.361Z,16.10
2018-09-02T02:08:48.788Z,16.00
2018-09-02T02:11:28.018Z,16.00
2018-09-02T02:13:57.397Z,16.00
2018-09-02T02:16:26.521Z,16.00
2018-09-02T02:18:55.592Z,16.00
2018-09-02T02:21:24.732Z,16.00
2018-09-02T02:23:53.840Z,15.90
2018-09-02T02:26:22.954Z,15.90
2018-09-02T02:28:52.152Z,15.90
2018-09-02T02:31:30.265Z,15.90
2018-09-02T02:33:59.373Z,15.90
2018-09-02T02:36:28.456Z,15.90
2018-09-02T02:38:57.822Z,15.90
2018-09-02T02:41:28.181Z,15.90
2018-09-02T02:43:57.601Z,15.90
2018-09-02T02:46:27.031Z,15.90
2018-09-02T02:48:56.451Z,15.80
2018-09-02T02:51:27.653Z,15.90
2018-09-02T02:53:56.745Z,15.80
2018-09-02T02:56:25.875Z,15.80
2018-09-02T02:58:54.985Z,15.90
2018-09-02T03:01:24.141Z,15.90
2018-09-02T03:03:53.289Z,16.00
2018-09-02T03:06:22.380Z,15.90
2018-09-02T03:08:51.513Z,15.80
2018-09-02T03:11:48.445Z,15.90
2018-09-02T03:14:17.853Z,15.90
2018-09-02T03:16:47.201Z,15.90
2018-09-02T03:19:16.549Z,15.90
2018-09-02T03:21:46.986Z,15.90
2018-09-02T03:24:16.396Z,15.90
2018-09-02T03:26:45.817Z,15.80
2018-09-02T03:29:15.312Z,15.90
2018-09-02T03:31:44.732Z,15.90
2018-09-02T03:34:14.090Z,15.90
2018-09-02T03:36:43.502Z,15.80
2018-09-02T03:39:12.965Z,15.80
2018-09-02T03:41:49.912Z,15.90
2018-09-02T03:44:19.193Z,15.90
2018-09-02T03:46:48.889Z,15.90
2018-09-02T03:49:18.261Z,15.80
2018-09-02T03:51:51.464Z,15.90
2018-09-02T03:54:20.841Z,15.90
2018-09-02T03:56:50.144Z,15.80
2018-09-02T03:59:19.498Z,15.90
2018-09-02T04:01:51.799Z,15.80
2018-09-02T04:04:21.077Z,15.80
2018-09-02T04:06:50.537Z,15.80
2018-09-02T04:09:19.911Z,15.80
2018-09-02T04:11:49.361Z,15.90
2018-09-02T04:14:18.669Z,15.80
2018-09-02T04:16:48.060Z,15.80
2018-09-02T04:19:17.470Z,15.80
2018-09-02T04:21:46.890Z,15.70
2018-09-02T04:24:16.265Z,15.70
2018-09-02T04:26:45.670Z,15.70
2018-09-02T04:29:15.006Z,15.60
2018-09-02T04:31:46.417Z,15.60
2018-09-02T04:34:15.879Z,15.70
2018-09-02T04:36:45.207Z,15.70
2018-09-02T04:39:14.584Z,15.70
2018-09-02T04:41:44.014Z,15.70
2018-09-02T04:44:13.409Z,15.80
2018-09-02T04:46:42.726Z,15.80
2018-09-02T04:49:12.138Z,15.70
2018-09-02T04:51:43.530Z,15.70
2018-09-02T04:54:12.844Z,15.70
2018-09-02T04:56:42.182Z,15.70
2018-09-02T04:59:11.606Z,15.70
2018-09-02T05:01:43.023Z,15.70
2018-09-02T05:04:12.397Z,15.70
2018-09-02T05:06:43.485Z,15.60
2018-09-02T05:09:12.779Z,15.70
2018-09-02T05:11:43.229Z,15.70
2018-09-02T05:14:12.634Z,15.70
2018-09-02T05:16:41.945Z,15.70
2018-09-02T05:19:11.274Z,15.60
2018-09-02T05:21:42.744Z,15.70
2018-09-02T05:24:12.178Z,15.60
2018-09-02T05:26:41.669Z,15.60
2018-09-02T05:29:11.118Z,15.60
2018-09-02T05:32:10.518Z,15.60
2018-09-02T05:34:39.641Z,15.70
2018-09-02T05:37:08.729Z,15.60
2018-09-02T05:39:37.818Z,15.60
2018-09-02T05:42:08.001Z,15.60
2018-09-02T05:44:37.125Z,15.60
2018-09-02T05:47:06.505Z,15.60
2018-09-02T05:49:35.665Z,15.60
2018-09-02T05:52:09.502Z,15.70
2018-09-02T05:54:38.937Z,15.70
2018-09-02T05:57:08.440Z,15.60
2018-09-02T05:59:37.825Z,15.50
2018-09-02T06:02:08.244Z,15.60
2018-09-02T06:07:06.669Z,15.40
2018-09-02T06:09:36.078Z,15.40
2018-09-02T06:12:06.493Z,15.30
2018-09-02T06:14:35.905Z,15.30
2018-09-02T06:17:05.445Z,15.30
2018-09-02T06:19:34.821Z,15.30
2018-09-02T06:22:11.942Z,15.30
2018-09-02T06:24:41.255Z,15.30
2018-09-02T06:27:10.589Z,15.30
2018-09-02T06:29:39.988Z,15.30
2018-09-02T06:32:09.431Z,15.30
2018-09-02T06:34:38.950Z,15.30
2018-09-02T06:37:08.313Z,15.30
2018-09-02T06:39:37.823Z,15.30
2018-09-02T06:42:11.046Z,15.20
2018-09-02T06:44:40.461Z,15.20
2018-09-02T06:47:09.826Z,15.20
2018-09-02T06:49:39.130Z,15.20
2018-09-02T06:52:16.445Z,15.20
2018-09-02T06:54:45.842Z,15.20
2018-09-02T06:57:15.190Z,15.30
2018-09-02T06:59:44.621Z,15.30
2018-09-02T07:02:15.085Z,15.40
2018-09-02T07:04:44.449Z,15.40
2018-09-02T07:07:13.820Z,15.50
2018-09-02T07:09:43.058Z,15.50
2018-09-02T07:14:49.775Z,15.60
2018-09-02T07:17:19.158Z,15.60
2018-09-02T07:19:49.613Z,15.60
2018-09-02T07:22:20.044Z,15.60
2018-09-02T07:24:49.505Z,15.60
2018-09-02T07:27:18.889Z,15.60
2018-09-02T07:29:48.343Z,15.70
2018-09-02T07:32:28.821Z,15.80
2018-09-02T07:34:58.177Z,15.80
2018-09-02T07:37:27.561Z,15.90
2018-09-02T07:39:57.054Z,16.00
2018-09-02T07:42:26.446Z,16.20
2018-09-02T07:44:55.913Z,16.20
2018-09-02T07:47:25.407Z,16.20
2018-09-02T07:49:54.721Z,16.20
2018-09-02T07:52:39.204Z,16.00
2018-09-02T07:55:08.752Z,16.00
2018-09-02T07:57:38.114Z,15.90
2018-09-02T08:00:10.135Z,15.70
2018-09-02T08:02:40.043Z,15.70
2018-09-02T08:05:09.530Z,15.80
2018-09-02T08:07:38.969Z,15.60
2018-09-02T08:10:09.902Z,15.50
2018-09-02T08:12:40.678Z,15.60
2018-09-02T08:17:39.081Z,15.50
2018-09-02T08:20:16.436Z,15.50
2018-09-02T08:22:45.839Z,15.50
2018-09-02T08:25:15.206Z,15.60
2018-09-02T08:27:44.549Z,15.60
2018-09-02T08:30:14.017Z,15.80
2018-09-02T08:32:43.423Z,15.80
2018-09-02T08:35:12.852Z,15.80
2018-09-02T08:37:42.309Z,15.70
2018-09-02T08:40:13.818Z,15.60
2018-09-02T08:42:43.222Z,15.70
2018-09-02T08:45:12.576Z,15.80
2018-09-02T08:47:41.945Z,15.80
2018-09-02T08:50:11.313Z,15.80
2018-09-02T08:52:40.618Z,16.00
2018-09-02T08:55:10.018Z,16.10
2018-09-02T08:57:39.369Z,16.10
2018-09-02T09:00:13.326Z,16.20
2018-09-02T09:02:42.717Z,16.30
2018-09-02T09:05:12.165Z,16.30
2018-09-02T09:10:10.652Z,16.50
2018-09-02T09:12:40.034Z,16.50
2018-09-02T09:15:09.389Z,16.60
2018-09-02T09:17:38.658Z,16.50
2018-09-02T09:20:17.858Z,16.50
2018-09-02T09:22:47.350Z,16.40
2018-09-02T09:25:16.665Z,16.30
2018-09-02T09:27:45.953Z,16.30
2018-09-02T09:30:16.426Z,16.40
2018-09-02T09:32:45.881Z,16.40
2018-09-02T09:35:15.293Z,16.50
2018-09-02T09:37:44.733Z,16.40
2018-09-02T09:40:16.165Z,16.40
2018-09-02T09:42:45.526Z,16.40
2018-09-02T09:45:14.833Z,16.50
2018-09-02T09:47:44.182Z,16.50
2018-09-02T09:50:13.546Z,16.60
2018-09-02T09:52:45.286Z,16.60
2018-09-02T09:55:14.726Z,16.80
2018-09-02T09:57:44.118Z,16.80
2018-09-02T10:00:15.730Z,16.90
2018-09-02T10:02:45.145Z,16.90
2018-09-02T10:05:14.558Z,16.80
2018-09-02T10:07:43.971Z,16.90
2018-09-02T10:10:13.493Z,16.90
2018-09-02T10:12:42.871Z,17.10
2018-09-02T10:15:12.298Z,17.20
2018-09-02T10:17:41.794Z,17.40
2018-09-02T10:20:11.122Z,17.30
2018-09-02T10:22:40.629Z,17.20
2018-09-02T10:25:09.981Z,17.40
2018-09-02T10:27:39.417Z,17.30
2018-09-02T10:30:08.990Z,17.40
2018-09-02T10:32:38.329Z,17.40
2018-09-02T10:35:07.810Z,17.30
2018-09-02T10:37:37.170Z,17.30
2018-09-02T10:42:47.204Z,17.50
2018-09-02T10:45:16.618Z,17.50
2018-09-02T10:47:46.081Z,17.50
2018-09-02T10:50:16.698Z,17.40
2018-09-02T10:52:46.105Z,17.30
2018-09-02T10:55:15.505Z,17.30
2018-09-02T10:57:44.893Z,17.10
2018-09-02T11:00:14.466Z,17.20
2018-09-02T11:02:43.849Z,17.20
2018-09-02T11:05:13.316Z,17.10
2018-09-02T11:07:42.785Z,17.10
2018-09-02T11:10:12.145Z,17.10
2018-09-02T11:12:41.550Z,17.10
2018-09-02T11:15:10.950Z,17.20
2018-09-02T11:17:40.445Z,17.10
2018-09-02T11:20:13.741Z,17.30
2018-09-02T11:22:43.133Z,17.20
2018-09-02T11:25:12.519Z,17.20
2018-09-02T11:27:41.937Z,17.20
2018-09-02T11:30:11.254Z,17.10
2018-09-02T11:32:40.665Z,17.10
2018-09-02T11:35:10.034Z,17.20
2018-09-02T11:37:39.429Z,17.10
2018-09-02T11:40:26.417Z,17.20
2018-09-02T11:42:55.870Z,17.20
2018-09-02T11:45:25.314Z,17.30
2018-09-02T11:47:54.681Z,17.20
2018-09-02T11:50:24.136Z,17.40
2018-09-02T11:52:53.563Z,17.30
2018-09-02T11:55:23.011Z,17.40
2018-09-02T11:57:52.504Z,17.50
2018-09-02T12:00:24.942Z,17.60
2018-09-02T12:02:54.181Z,17.80
2018-09-02T12:05:23.469Z,17.90
2018-09-02T12:10:24.114Z,18.10
2018-09-02T12:12:53.508Z,18.20
2018-09-02T12:15:22.965Z,18.20
2018-09-02T12:17:52.322Z,18.30
2018-09-02T12:20:36.698Z,18.40
2018-09-02T12:23:06.485Z,18.40
2018-09-02T12:25:35.865Z,18.30
2018-09-02T12:28:05.306Z,18.20
2018-09-02T12:30:47.285Z,18.10
2018-09-02T12:33:16.669Z,17.90
2018-09-02T12:35:46.043Z,17.90
2018-09-02T12:38:15.189Z,17.80
2018-09-02T12:40:45.393Z,17.70
2018-09-02T12:43:14.552Z,17.70
2018-09-02T12:45:50.009Z,17.80
2018-09-02T12:48:19.227Z,17.90
2018-09-02T12:50:57.497Z,17.90
2018-09-02T12:53:26.679Z,17.90
2018-09-02T12:56:00.193Z,17.90
2018-09-02T12:58:29.918Z,17.70
2018-09-02T13:00:59.261Z,17.80
2018-09-02T13:03:28.705Z,17.80
2018-09-02T13:05:58.081Z,17.70
2018-09-02T13:08:27.485Z,17.70
2018-09-02T13:11:00.310Z,17.80
2018-09-02T13:13:29.718Z,17.70
2018-09-02T13:15:59.147Z,17.70
2018-09-02T13:18:28.563Z,17.80
2018-09-02T13:21:30.045Z,17.80
2018-09-02T13:23:59.521Z,17.90
2018-09-02T13:26:30.374Z,17.80
2018-09-02T13:28:59.861Z,17.80
2018-09-02T13:31:34.948Z,17.90
2018-09-02T13:34:04.346Z,18.00
2018-09-02T13:36:33.675Z,18.00
2018-09-02T13:39:03.106Z,18.00
2018-09-02T13:41:45.182Z,18.10
2018-09-02T13:44:14.467Z,18.10
2018-09-02T13:46:43.995Z,18.30
2018-09-02T13:49:13.471Z,18.20
2018-09-02T13:51:43.934Z,18.10
2018-09-02T13:54:13.921Z,18.10
2018-09-02T13:56:43.455Z,18.10
2018-09-02T13:59:12.853Z,18.10
2018-09-02T14:01:47.390Z,18.20
2018-09-02T14:04:16.790Z,18.10
2018-09-02T14:06:46.153Z,18.10
2018-09-02T14:09:15.644Z,18.00
2018-09-02T14:11:46.013Z,17.90
2018-09-02T14:14:15.401Z,17.90
2018-09-02T14:16:44.806Z,17.90
2018-09-02T14:19:14.142Z,18.00
2018-09-02T14:21:43.700Z,18.10
2018-09-02T14:24:14.293Z,18.10
2018-09-02T14:26:44.014Z,18.10
2018-09-02T14:29:13.549Z,18.20
2018-09-02T14:31:52.206Z,18.30
2018-09-02T14:34:21.525Z,18.20
2018-09-02T14:36:51.020Z,18.30
2018-09-02T14:39:20.418Z,18.30
2018-09-02T14:41:57.403Z,18.40
2018-09-02T14:44:26.774Z,18.50
2018-09-02T14:46:56.273Z,18.50
2018-09-02T14:49:25.753Z,18.50
2018-09-02T14:51:56.226Z,18.40
2018-09-02T14:54:25.613Z,18.40
2018-09-02T14:57:02.636Z,18.40
2018-09-02T14:59:31.773Z,18.50
2018-09-02T15:02:08.702Z,18.40
2018-09-02T15:04:37.864Z,18.30
2018-09-02T15:07:07.181Z,18.20
2018-09-02T15:09:36.593Z,18.10
2018-09-02T15:12:15.490Z,18.20
2018-09-02T15:14:44.861Z,18.10
2018-09-02T15:17:13.998Z,18.10
2018-09-02T15:19:43.172Z,17.90
2018-09-02T15:22:14.345Z,18.10
2018-09-02T15:24:43.465Z,18.20
2018-09-02T15:27:12.657Z,18.10
2018-09-02T15:29:41.685Z,18.20
2018-09-02T15:32:29.308Z,18.30
2018-09-02T15:34:58.674Z,18.40
2018-09-02T15:37:28.130Z,18.50
2018-09-02T15:39:58.514Z,18.40
2018-09-02T15:42:27.927Z,18.50
2018-09-02T15:44:57.241Z,18.60
2018-09-02T15:47:26.681Z,18.70
2018-09-02T15:49:56.058Z,18.80
2018-09-02T15:52:26.414Z,18.70
2018-09-02T15:54:55.860Z,18.60
2018-09-02T15:57:25.169Z,18.60
2018-09-02T15:59:54.742Z,18.50
2018-09-02T16:02:25.230Z,18.50
2018-09-02T16:04:54.616Z,18.30
2018-09-02T16:07:29.758Z,18.40
2018-09-02T16:10:00.534Z,18.20
2018-09-02T16:12:30.573Z,18.10
2018-09-02T16:15:00.122Z,18.00
2018-09-02T16:17:29.873Z,18.00
2018-09-02T16:19:59.508Z,17.90
2018-09-02T16:22:28.832Z,17.90
2018-09-02T16:25:07.056Z,17.90
2018-09-02T16:27:36.237Z,17.90
2018-09-02T16:30:05.823Z,18.00
2018-09-02T16:32:34.961Z,18.00
2018-09-02T16:35:04.554Z,18.10
2018-09-02T16:37:33.982Z,18.10
2018-09-02T16:40:03.305Z,18.00
2018-09-02T16:42:32.769Z,18.00
2018-09-02T16:45:02.201Z,18.00
2018-09-02T16:47:31.593Z,18.00
2018-09-02T16:50:00.901Z,17.90
2018-09-02T16:52:30.269Z,17.90
2018-09-02T16:54:59.697Z,17.90
2018-09-02T16:57:29.205Z,17.80
2018-09-02T16:59:58.621Z,17.80
2018-09-02T17:02:28.557Z,17.70
2018-09-02T17:05:02.925Z,17.70
2018-09-02T17:07:32.368Z,17.70
2018-09-02T17:10:01.841Z,17.90
2018-09-02T17:12:31.237Z,17.80
2018-09-02T17:15:01.133Z,17.70
2018-09-02T17:17:30.457Z,18.10
2018-09-02T17:20:00.551Z,17.60
2018-09-02T17:22:29.986Z,17.70
2018-09-02T17:24:59.441Z,17.20
2018-09-02T17:27:28.789Z,17.50
2018-09-02T17:29:58.328Z,17.50
2018-09-02T17:32:28.434Z,17.50
2018-09-02T17:34:57.818Z,17.50
2018-09-02T17:37:27.149Z,17.50
2018-09-02T17:39:56.448Z,17.50
2018-09-02T17:42:26.942Z,17.40
2018-09-02T17:44:56.346Z,17.40
2018-09-02T17:47:25.826Z,17.40
2018-09-02T17:49:55.242Z,17.30
2018-09-02T17:52:25.578Z,17.30
2018-09-02T17:54:54.974Z,17.20
2018-09-02T17:57:24.334Z,17.30
2018-09-02T17:59:53.709Z,17.30
2018-09-02T18:02:23.261Z,17.20
2018-09-02T18:04:52.653Z,17.10
2018-09-02T18:07:22.183Z,17.10
2018-09-02T18:09:51.670Z,17.10
2018-09-02T18:12:22.131Z,17.20
2018-09-02T18:14:51.585Z,17.10
2018-09-02T18:17:20.986Z,17.10
2018-09-02T18:19:50.417Z,17.00
2018-09-02T18:22:21.944Z,17.00
2018-09-02T18:24:51.421Z,17.00
2018-09-02T18:27:26.054Z,17.00
2018-09-02T18:29:57.705Z,17.10
2018-09-02T18:32:29.928Z,17.00
2018-09-02T18:35:00.250Z,17.00
2018-09-02T18:37:29.897Z,16.90
2018-09-02T18:39:59.257Z,16.90
2018-09-02T18:42:28.665Z,16.90
2018-09-02T18:44:58.002Z,16.80
2018-09-02T18:47:27.398Z,16.80
2018-09-02T18:49:56.757Z,16.80
2018-09-02T18:52:27.941Z,16.80
2018-09-02T18:54:57.149Z,16.80
2018-09-02T18:57:26.534Z,16.80
2018-09-02T18:59:55.905Z,16.70
2018-09-02T19:02:42.130Z,16.70
2018-09-02T19:05:11.539Z,16.60
2018-09-02T19:07:41.000Z,16.50
2018-09-02T19:10:10.438Z,16.40
2018-09-02T19:12:39.909Z,16.40
2018-09-02T19:15:09.323Z,16.40
2018-09-02T19:17:38.709Z,16.30
2018-09-02T19:20:08.445Z,16.20
2018-09-02T19:22:37.894Z,16.20
2018-09-02T19:25:07.537Z,16.20
2018-09-02T19:27:36.969Z,16.10
2018-09-02T19:30:07.121Z,16.00
2018-09-02T19:32:36.520Z,16.00
2018-09-02T19:35:05.842Z,16.00
2018-09-02T19:37:35.145Z,16.00
2018-09-02T19:40:04.552Z,16.00
2018-09-02T19:42:33.893Z,15.90
2018-09-02T19:45:03.388Z,15.80
2018-09-02T19:47:32.873Z,15.80
2018-09-02T19:50:02.353Z,15.80
2018-09-02T19:52:31.617Z,15.90
2018-09-02T19:55:00.789Z,15.90
2018-09-02T19:57:29.890Z,15.90
2018-09-02T19:59:59.008Z,15.80
2018-09-02T20:02:28.101Z,15.80
2018-09-02T20:04:57.237Z,15.90
2018-09-02T20:07:26.349Z,15.80
2018-09-02T20:09:55.888Z,15.90
2018-09-02T20:12:25.061Z,15.80
2018-09-02T20:14:54.193Z,15.80
2018-09-02T20:17:23.296Z,15.70
2018-09-02T20:19:52.409Z,15.70
2018-09-02T20:22:24.833Z,15.70
2018-09-02T20:24:53.977Z,15.80
2018-09-02T20:27:23.098Z,15.80
2018-09-02T20:29:52.208Z,15.70
2018-09-02T20:32:21.413Z,15.60
2018-09-02T20:34:50.516Z,15.60
2018-09-02T20:37:19.802Z,15.70
2018-09-02T20:39:49.657Z,15.70
2018-09-02T20:42:23.054Z,15.70
2018-09-02T20:44:52.457Z,15.70
2018-09-02T20:47:21.932Z,15.70
2018-09-02T20:49:51.380Z,15.70
2018-09-02T20:52:36.023Z,15.60
2018-09-02T20:55:06.253Z,15.60
2018-09-02T20:57:35.673Z,15.70
2018-09-02T21:00:05.269Z,15.70
2018-09-02T21:02:34.746Z,15.70
2018-09-02T21:05:04.093Z,15.70
2018-09-02T21:07:33.497Z,15.70
2018-09-02T21:10:02.806Z,15.70
2018-09-02T21:12:32.214Z,15.70
2018-09-02T21:15:01.605Z,15.70
2018-09-02T21:17:30.893Z,15.60
2018-09-02T21:20:00.526Z,15.60
2018-09-02T21:22:29.880Z,15.60
2018-09-02T21:24:59.222Z,15.60
2018-09-02T21:27:28.543Z,15.70
2018-09-02T21:29:57.909Z,15.70
2018-09-02T21:32:27.292Z,15.70
2018-09-02T21:34:56.684Z,15.60
2018-09-02T21:37:25.996Z,15.60
2018-09-02T21:39:55.342Z,15.60
2018-09-02T21:42:24.829Z,15.70
2018-09-02T21:44:54.193Z,15.70
2018-09-02T21:47:23.632Z,15.60
2018-09-02T21:49:52.945Z,15.60
2018-09-02T21:52:27.557Z,15.60
2018-09-02T21:54:56.929Z,15.60
2018-09-02T21:57:26.358Z,15.50
2018-09-02T21:59:55.761Z,15.50
2018-09-02T22:02:27.229Z,15.50
2018-09-02T22:04:56.597Z,15.50
2018-09-02T22:07:26.054Z,15.40
2018-09-02T22:09:55.442Z,15.50
2018-09-02T22:12:24.919Z,15.50
2018-09-02T22:14:54.327Z,15.50
2018-09-02T22:17:23.669Z,15.50
2018-09-02T22:19:53.122Z,15.50
2018-09-02T22:22:36.413Z,15.40
2018-09-02T22:25:06.665Z,15.40
2018-09-02T22:27:36.033Z,15.40
2018-09-02T22:30:06.365Z,15.40
2018-09-02T22:32:35.861Z,15.40
2018-09-02T22:35:05.353Z,15.40
2018-09-02T22:37:34.648Z,15.40
2018-09-02T22:40:04.066Z,15.40
2018-09-02T22:42:33.474Z,15.40
2018-09-02T22:45:02.828Z,15.40
2018-09-02T22:47:32.174Z,15.40
2018-09-02T22:50:01.533Z,15.40
2018-09-02T22:52:31.001Z,15.40
2018-09-02T22:55:00.419Z,15.40
2018-09-02T22:57:29.785Z,15.40
2018-09-02T23:00:00.141Z,15.40
2018-09-02T23:02:29.510Z,15.40
2018-09-02T23:04:59.001Z,15.40
2018-09-02T23:07:28.385Z,15.40
2018-09-02T23:09:57.733Z,15.40
2018-09-02T23:12:27.050Z,15.40
2018-09-02T23:14:56.394Z,15.40
2018-09-02T23:17:25.825Z,15.30
2018-09-02T23:19:55.270Z,15.30
2018-09-02T23:22:26.710Z,15.30
2018-09-02T23:24:56.105Z,15.30
2018-09-02T23:27:25.591Z,15.30
2018-09-02T23:29:55.065Z,15.30
2018-09-02T23:32:25.574Z,15.30
2018-09-02T23:34:54.990Z,15.30
2018-09-02T23:37:24.310Z,15.30
2018-09-02T23:39:53.778Z,15.30
2018-09-02T23:42:23.222Z,15.30
2018-09-02T23:44:52.586Z,15.30
2018-09-02T23:47:21.997Z,15.30
2018-09-02T23:49:51.333Z,15.30
2018-09-02T23:52:22.853Z,15.30
2018-09-02T23:54:52.297Z,15.30
2018-09-02T23:57:21.624Z,15.30
2018-09-02T23:59:51.153Z,15.30
